sensor_id;sensor_type;location;lat;lon;timestamp;temperature;humidity
8824;DHT22;4448;50.904;4.694;2022-09-21T00:00:37;10.20;99.90
8824;DHT22;4448;50.904;4.694;2022-09-21T00:03:04;10.10;99.90
8824;DHT22;4448;50.904;4.694;2022-09-21T00:05:30;10.10;99.90
8824;DHT22;4448;50.904;4.694;2022-09-21T00:07:59;10.00;99.90
8824;DHT22;4448;50.904;4.694;2022-09-21T00:10:25;10.00;99.90
8824;DHT22;4448;50.904;4.694;2022-09-21T00:12:51;10.00;99.90
8824;DHT22;4448;50.904;4.694;2022-09-21T00:15:17;10.00;99.90
8824;DHT22;4448;50.904;4.694;2022-09-21T00:17:44;10.00;99.90
8824;DHT22;4448;50.904;4.694;2022-09-21T00:20:11;9.90;99.90
8824;DHT22;4448;50.904;4.694;2022-09-21T00:22:37;9.90;99.90
8824;DHT22;4448;50.904;4.694;2022-09-21T00:25:03;9.90;99.90
8824;DHT22;4448;50.904;4.694;2022-09-21T00:27:30;9.90;99.90
8824;DHT22;4448;50.904;4.694;2022-09-21T00:29:56;9.90;99.90
8824;DHT22;4448;50.904;4.694;2022-09-21T00:32:23;9.90;99.90
8824;DHT22;4448;50.904;4.694;2022-09-21T00:34:50;9.90;99.90
8824;DHT22;4448;50.904;4.694;2022-09-21T00:37:19;9.90;99.90
8824;DHT22;4448;50.904;4.694;2022-09-21T00:39:45;9.80;99.90
8824;DHT22;4448;50.904;4.694;2022-09-21T00:42:20;9.80;99.90
8824;DHT22;4448;50.904;4.694;2022-09-21T00:44:46;9.80;99.90
8824;DHT22;4448;50.904;4.694;2022-09-21T00:47:36;9.80;99.90
8824;DHT22;4448;50.904;4.694;2022-09-21T00:50:07;9.70;99.90
8824;DHT22;4448;50.904;4.694;2022-09-21T00:52:37;9.80;99.90
8824;DHT22;4448;50.904;4.694;2022-09-21T00:57:35;9.80;99.90
8824;DHT22;4448;50.904;4.694;2022-09-21T01:00:05;9.70;99.90
8824;DHT22;4448;50.904;4.694;2022-09-21T01:02:34;9.60;99.90
8824;DHT22;4448;50.904;4.694;2022-09-21T01:05:00;9.50;99.90
8824;DHT22;4448;50.904;4.694;2022-09-21T01:07:29;9.60;99.90
8824;DHT22;4448;50.904;4.694;2022-09-21T01:10:00;9.50;99.90
8824;DHT22;4448;50.904;4.694;2022-09-21T01:15:45;9.40;99.90
8824;DHT22;4448;50.904;4.694;2022-09-21T01:18:26;9.40;99.90
8824;DHT22;4448;50.904;4.694;2022-09-21T01:21:07;9.40;99.90
8824;DHT22;4448;50.904;4.694;2022-09-21T01:31:10;9.40;99.90
8824;DHT22;4448;50.904;4.694;2022-09-21T01:33:44;9.50;99.90
8824;DHT22;4448;50.904;4.694;2022-09-21T01:36:15;9.50;99.90
8824;DHT22;4448;50.904;4.694;2022-09-21T01:38:45;9.50;99.90
8824;DHT22;4448;50.904;4.694;2022-09-21T01:41:17;9.50;99.90
8824;DHT22;4448;50.904;4.694;2022-09-21T01:43:52;9.40;99.90
8824;DHT22;4448;50.904;4.694;2022-09-21T01:46:20;9.40;99.90
8824;DHT22;4448;50.904;4.694;2022-09-21T01:48:50;9.40;99.90
8824;DHT22;4448;50.904;4.694;2022-09-21T01:51:18;9.30;99.90
8824;DHT22;4448;50.904;4.694;2022-09-21T01:53:55;9.20;99.90
8824;DHT22;4448;50.904;4.694;2022-09-21T01:56:24;9.20;99.90
8824;DHT22;4448;50.904;4.694;2022-09-21T01:59:19;9.20;99.90
8824;DHT22;4448;50.904;4.694;2022-09-21T02:01:52;9.10;99.90
8824;DHT22;4448;50.904;4.694;2022-09-21T02:04:19;9.20;99.90
8824;DHT22;4448;50.904;4.694;2022-09-21T02:06:46;9.10;99.90
8824;DHT22;4448;50.904;4.694;2022-09-21T02:09:12;9.10;99.90
8824;DHT22;4448;50.904;4.694;2022-09-21T02:11:38;9.10;99.90
8824;DHT22;4448;50.904;4.694;2022-09-21T02:14:09;9.10;99.90
8824;DHT22;4448;50.904;4.694;2022-09-21T02:17:04;9.10;99.90
8824;DHT22;4448;50.904;4.694;2022-09-21T02:22:58;9.00;99.90
8824;DHT22;4448;50.904;4.694;2022-09-21T02:25:42;9.00;99.90
8824;DHT22;4448;50.904;4.694;2022-09-21T02:33:58;9.00;99.90
8824;DHT22;4448;50.904;4.694;2022-09-21T02:36:32;9.10;99.90
8824;DHT22;4448;50.904;4.694;2022-09-21T02:39:08;9.10;99.90
8824;DHT22;4448;50.904;4.694;2022-09-21T02:44:22;9.00;99.90
8824;DHT22;4448;50.904;4.694;2022-09-21T02:47:02;9.00;99.90
8824;DHT22;4448;50.904;4.694;2022-09-21T02:49:33;9.00;99.90
8824;DHT22;4448;50.904;4.694;2022-09-21T02:52:04;9.00;99.90
8824;DHT22;4448;50.904;4.694;2022-09-21T02:54:32;8.90;99.90
8824;DHT22;4448;50.904;4.694;2022-09-21T02:56:59;8.90;99.90
8824;DHT22;4448;50.904;4.694;2022-09-21T02:59:26;8.90;99.90
8824;DHT22;4448;50.904;4.694;2022-09-21T03:01:53;8.70;99.90
8824;DHT22;4448;50.904;4.694;2022-09-21T03:04:20;8.70;99.90
8824;DHT22;4448;50.904;4.694;2022-09-21T03:06:46;8.70;99.90
8824;DHT22;4448;50.904;4.694;2022-09-21T03:09:12;8.60;99.90
8824;DHT22;4448;50.904;4.694;2022-09-21T03:11:38;8.70;99.90
8824;DHT22;4448;50.904;4.694;2022-09-21T03:14:06;8.70;99.90
8824;DHT22;4448;50.904;4.694;2022-09-21T03:16:36;8.60;99.90
8824;DHT22;4448;50.904;4.694;2022-09-21T03:19:03;8.60;99.90
8824;DHT22;4448;50.904;4.694;2022-09-21T03:21:29;8.70;99.90
8824;DHT22;4448;50.904;4.694;2022-09-21T03:23:55;8.80;99.90
8824;DHT22;4448;50.904;4.694;2022-09-21T03:26:21;8.80;99.90
8824;DHT22;4448;50.904;4.694;2022-09-21T03:28:50;8.80;99.90
8824;DHT22;4448;50.904;4.694;2022-09-21T03:31:19;8.90;99.90
8824;DHT22;4448;50.904;4.694;2022-09-21T03:33:44;8.80;99.90
8824;DHT22;4448;50.904;4.694;2022-09-21T03:36:10;8.80;99.90
8824;DHT22;4448;50.904;4.694;2022-09-21T03:38:36;8.70;99.90
8824;DHT22;4448;50.904;4.694;2022-09-21T03:41:03;8.60;99.90
8824;DHT22;4448;50.904;4.694;2022-09-21T03:43:29;8.60;99.90
8824;DHT22;4448;50.904;4.694;2022-09-21T03:45:55;8.60;99.90
8824;DHT22;4448;50.904;4.694;2022-09-21T03:48:20;8.70;99.90
8824;DHT22;4448;50.904;4.694;2022-09-21T03:50:47;8.60;99.90
8824;DHT22;4448;50.904;4.694;2022-09-21T03:53:13;8.50;99.90
8824;DHT22;4448;50.904;4.694;2022-09-21T03:55:39;8.50;99.90
8824;DHT22;4448;50.904;4.694;2022-09-21T03:58:06;8.40;99.90
8824;DHT22;4448;50.904;4.694;2022-09-21T04:00:32;8.40;99.90
8824;DHT22;4448;50.904;4.694;2022-09-21T04:02:58;8.40;99.90
8824;DHT22;4448;50.904;4.694;2022-09-21T04:05:24;8.40;99.90
8824;DHT22;4448;50.904;4.694;2022-09-21T04:07:49;8.40;99.90
8824;DHT22;4448;50.904;4.694;2022-09-21T04:10:19;8.50;99.90
8824;DHT22;4448;50.904;4.694;2022-09-21T04:12:46;8.50;99.90
8824;DHT22;4448;50.904;4.694;2022-09-21T04:15:15;8.50;99.90
8824;DHT22;4448;50.904;4.694;2022-09-21T04:17:41;8.50;99.90
8824;DHT22;4448;50.904;4.694;2022-09-21T04:20:08;8.50;99.90
8824;DHT22;4448;50.904;4.694;2022-09-21T04:22:34;8.50;99.90
8824;DHT22;4448;50.904;4.694;2022-09-21T04:25:02;8.40;99.90
8824;DHT22;4448;50.904;4.694;2022-09-21T04:27:28;8.50;99.90
8824;DHT22;4448;50.904;4.694;2022-09-21T04:29:54;8.50;99.90
8824;DHT22;4448;50.904;4.694;2022-09-21T04:32:19;8.40;99.90
8824;DHT22;4448;50.904;4.694;2022-09-21T04:34:45;8.30;99.90
8824;DHT22;4448;50.904;4.694;2022-09-21T04:37:11;8.20;99.90
8824;DHT22;4448;50.904;4.694;2022-09-21T04:39:37;8.30;99.90
8824;DHT22;4448;50.904;4.694;2022-09-21T04:42:03;8.30;99.90
8824;DHT22;4448;50.904;4.694;2022-09-21T04:44:29;8.30;99.90
8824;DHT22;4448;50.904;4.694;2022-09-21T04:46:56;8.40;99.90
8824;DHT22;4448;50.904;4.694;2022-09-21T04:49:22;8.30;99.90
8824;DHT22;4448;50.904;4.694;2022-09-21T04:51:47;8.30;99.90
8824;DHT22;4448;50.904;4.694;2022-09-21T04:54:14;8.20;99.90
8824;DHT22;4448;50.904;4.694;2022-09-21T04:56:39;8.20;99.90
8824;DHT22;4448;50.904;4.694;2022-09-21T04:59:05;8.20;99.90
8824;DHT22;4448;50.904;4.694;2022-09-21T05:01:31;8.20;99.90
8824;DHT22;4448;50.904;4.694;2022-09-21T05:03:56;8.20;99.90
8824;DHT22;4448;50.904;4.694;2022-09-21T05:06:27;8.10;99.90
8824;DHT22;4448;50.904;4.694;2022-09-21T05:08:53;8.00;99.90
8824;DHT22;4448;50.904;4.694;2022-09-21T05:11:37;8.00;99.90
8824;DHT22;4448;50.904;4.694;2022-09-21T05:14:03;8.00;99.90
8824;DHT22;4448;50.904;4.694;2022-09-21T05:16:29;8.00;99.90
8824;DHT22;4448;50.904;4.694;2022-09-21T05:18:55;8.00;99.90
8824;DHT22;4448;50.904;4.694;2022-09-21T05:21:21;8.00;99.90
8824;DHT22;4448;50.904;4.694;2022-09-21T05:23:46;8.00;99.90
8824;DHT22;4448;50.904;4.694;2022-09-21T05:26:12;8.20;99.90
8824;DHT22;4448;50.904;4.694;2022-09-21T05:28:38;8.20;99.90
8824;DHT22;4448;50.904;4.694;2022-09-21T05:33:56;8.20;99.90
8824;DHT22;4448;50.904;4.694;2022-09-21T05:38:52;8.20;99.90
8824;DHT22;4448;50.904;4.694;2022-09-21T05:41:18;8.10;99.90
8824;DHT22;4448;50.904;4.694;2022-09-21T05:43:43;8.10;99.90
8824;DHT22;4448;50.904;4.694;2022-09-21T05:52:19;8.10;99.90
8824;DHT22;4448;50.904;4.694;2022-09-21T05:55:08;8.20;99.90
8824;DHT22;4448;50.904;4.694;2022-09-21T06:03:26;8.10;99.90
8824;DHT22;4448;50.904;4.694;2022-09-21T06:05:53;8.10;99.90
8824;DHT22;4448;50.904;4.694;2022-09-21T06:08:19;8.10;99.90
8824;DHT22;4448;50.904;4.694;2022-09-21T06:10:46;8.20;99.90
8824;DHT22;4448;50.904;4.694;2022-09-21T06:13:13;8.40;99.90
8824;DHT22;4448;50.904;4.694;2022-09-21T06:15:39;8.50;99.90
8824;DHT22;4448;50.904;4.694;2022-09-21T06:18:05;8.60;99.90
8824;DHT22;4448;50.904;4.694;2022-09-21T06:20:31;8.70;99.90
8824;DHT22;4448;50.904;4.694;2022-09-21T06:23:05;8.80;99.90
8824;DHT22;4448;50.904;4.694;2022-09-21T06:25:31;8.70;99.90
8824;DHT22;4448;50.904;4.694;2022-09-21T06:28:11;8.70;99.90
8824;DHT22;4448;50.904;4.694;2022-09-21T06:30:37;8.80;99.90
8824;DHT22;4448;50.904;4.694;2022-09-21T06:33:05;8.90;99.90
8824;DHT22;4448;50.904;4.694;2022-09-21T06:35:33;9.10;99.90
8824;DHT22;4448;50.904;4.694;2022-09-21T06:37:59;9.10;99.90
8824;DHT22;4448;50.904;4.694;2022-09-21T06:40:26;9.20;99.90
8824;DHT22;4448;50.904;4.694;2022-09-21T06:42:55;9.30;99.90
8824;DHT22;4448;50.904;4.694;2022-09-21T06:45:22;9.40;99.90
8824;DHT22;4448;50.904;4.694;2022-09-21T06:47:47;9.40;99.90
8824;DHT22;4448;50.904;4.694;2022-09-21T06:50:13;9.50;99.90
8824;DHT22;4448;50.904;4.694;2022-09-21T06:52:39;9.60;99.90
8824;DHT22;4448;50.904;4.694;2022-09-21T06:55:07;9.90;99.90
8824;DHT22;4448;50.904;4.694;2022-09-21T06:57:32;10.20;99.90
8824;DHT22;4448;50.904;4.694;2022-09-21T06:59:58;10.30;99.90
8824;DHT22;4448;50.904;4.694;2022-09-21T07:02:24;10.50;99.90
8824;DHT22;4448;50.904;4.694;2022-09-21T07:04:49;10.70;99.90
8824;DHT22;4448;50.904;4.694;2022-09-21T07:07:15;11.30;99.90
8824;DHT22;4448;50.904;4.694;2022-09-21T07:09:41;11.70;99.90
8824;DHT22;4448;50.904;4.694;2022-09-21T07:12:07;11.80;99.90
8824;DHT22;4448;50.904;4.694;2022-09-21T07:14:33;12.40;99.90
8824;DHT22;4448;50.904;4.694;2022-09-21T07:16:58;13.30;99.90
8824;DHT22;4448;50.904;4.694;2022-09-21T07:19:24;14.00;99.90
8824;DHT22;4448;50.904;4.694;2022-09-21T07:21:53;14.70;99.90
8824;DHT22;4448;50.904;4.694;2022-09-21T07:24:19;15.20;99.90
8824;DHT22;4448;50.904;4.694;2022-09-21T07:26:45;15.60;99.90
8824;DHT22;4448;50.904;4.694;2022-09-21T07:29:10;15.60;99.90
8824;DHT22;4448;50.904;4.694;2022-09-21T07:31:36;15.60;99.90
8824;DHT22;4448;50.904;4.694;2022-09-21T07:34:02;15.50;99.90
8824;DHT22;4448;50.904;4.694;2022-09-21T07:36:28;15.50;99.90
8824;DHT22;4448;50.904;4.694;2022-09-21T07:38:56;15.60;99.90
8824;DHT22;4448;50.904;4.694;2022-09-21T07:41:22;15.80;99.90
8824;DHT22;4448;50.904;4.694;2022-09-21T07:43:47;16.00;99.90
8824;DHT22;4448;50.904;4.694;2022-09-21T07:46:14;16.20;99.90
8824;DHT22;4448;50.904;4.694;2022-09-21T07:48:40;16.00;99.90
8824;DHT22;4448;50.904;4.694;2022-09-21T07:51:08;15.90;99.90
8824;DHT22;4448;50.904;4.694;2022-09-21T07:53:35;15.90;99.90
8824;DHT22;4448;50.904;4.694;2022-09-21T07:56:07;16.10;99.90
8824;DHT22;4448;50.904;4.694;2022-09-21T07:58:34;16.30;99.90
8824;DHT22;4448;50.904;4.694;2022-09-21T08:01:19;16.30;99.90
8824;DHT22;4448;50.904;4.694;2022-09-21T08:03:48;16.40;99.90
8824;DHT22;4448;50.904;4.694;2022-09-21T08:06:13;16.50;99.90
8824;DHT22;4448;50.904;4.694;2022-09-21T08:08:39;16.60;99.90
8824;DHT22;4448;50.904;4.694;2022-09-21T08:11:07;16.70;99.90
8824;DHT22;4448;50.904;4.694;2022-09-21T08:13:33;16.90;99.90
8824;DHT22;4448;50.904;4.694;2022-09-21T08:16:00;16.90;99.90
8824;DHT22;4448;50.904;4.694;2022-09-21T08:18:26;17.20;99.90
8824;DHT22;4448;50.904;4.694;2022-09-21T08:20:53;17.40;99.90
8824;DHT22;4448;50.904;4.694;2022-09-21T08:23:20;17.50;99.90
8824;DHT22;4448;50.904;4.694;2022-09-21T08:25:45;17.70;99.90
8824;DHT22;4448;50.904;4.694;2022-09-21T08:28:11;17.90;99.90
8824;DHT22;4448;50.904;4.694;2022-09-21T08:30:37;18.00;99.90
8824;DHT22;4448;50.904;4.694;2022-09-21T08:33:03;18.00;99.90
8824;DHT22;4448;50.904;4.694;2022-09-21T08:35:29;18.10;99.90
8824;DHT22;4448;50.904;4.694;2022-09-21T08:37:54;18.30;99.90
8824;DHT22;4448;50.904;4.694;2022-09-21T08:40:20;18.50;99.90
8824;DHT22;4448;50.904;4.694;2022-09-21T08:43:13;18.70;99.90
8824;DHT22;4448;50.904;4.694;2022-09-21T08:45:41;18.90;99.90
8824;DHT22;4448;50.904;4.694;2022-09-21T08:48:18;18.90;99.90
8824;DHT22;4448;50.904;4.694;2022-09-21T08:50:51;18.90;99.90
8824;DHT22;4448;50.904;4.694;2022-09-21T08:55:57;19.60;99.90
8824;DHT22;4448;50.904;4.694;2022-09-21T08:58:25;19.70;99.90
8824;DHT22;4448;50.904;4.694;2022-09-21T09:19:54;20.80;99.90
8824;DHT22;4448;50.904;4.694;2022-09-21T09:22:28;20.70;99.90
8824;DHT22;4448;50.904;4.694;2022-09-21T09:25:01;20.80;99.90
8824;DHT22;4448;50.904;4.694;2022-09-21T09:27:39;20.90;99.90
8824;DHT22;4448;50.904;4.694;2022-09-21T09:30:19;21.20;99.90
8824;DHT22;4448;50.904;4.694;2022-09-21T09:33:19;21.10;99.90
8824;DHT22;4448;50.904;4.694;2022-09-21T09:35:54;20.90;99.90
8824;DHT22;4448;50.904;4.694;2022-09-21T09:38:33;20.80;99.90
8824;DHT22;4448;50.904;4.694;2022-09-21T09:52:32;23.00;99.90
8824;DHT22;4448;50.904;4.694;2022-09-21T09:55:00;23.00;99.90
8824;DHT22;4448;50.904;4.694;2022-09-21T09:57:31;23.10;99.90
8824;DHT22;4448;50.904;4.694;2022-09-21T10:00:03;23.00;99.90
8824;DHT22;4448;50.904;4.694;2022-09-21T10:02:50;22.90;99.90
8824;DHT22;4448;50.904;4.694;2022-09-21T10:05:23;23.00;99.90
8824;DHT22;4448;50.904;4.694;2022-09-21T10:07:50;23.10;99.90
8824;DHT22;4448;50.904;4.694;2022-09-21T10:12:53;23.40;99.90
8824;DHT22;4448;50.904;4.694;2022-09-21T10:15:23;23.50;99.90
8824;DHT22;4448;50.904;4.694;2022-09-21T10:18:00;23.70;99.90
8824;DHT22;4448;50.904;4.694;2022-09-21T10:20:26;24.00;99.90
8824;DHT22;4448;50.904;4.694;2022-09-21T10:22:55;24.00;99.90
8824;DHT22;4448;50.904;4.694;2022-09-21T10:25:21;24.20;99.90
8824;DHT22;4448;50.904;4.694;2022-09-21T10:27:50;24.00;99.90
8824;DHT22;4448;50.904;4.694;2022-09-21T10:30:34;23.60;99.90
8824;DHT22;4448;50.904;4.694;2022-09-21T10:33:03;23.20;99.90
8824;DHT22;4448;50.904;4.694;2022-09-21T10:35:29;22.70;99.90
8824;DHT22;4448;50.904;4.694;2022-09-21T10:38:15;22.00;99.90
8824;DHT22;4448;50.904;4.694;2022-09-21T10:40:42;21.40;99.90
8824;DHT22;4448;50.904;4.694;2022-09-21T10:45:55;21.40;99.90
8824;DHT22;4448;50.904;4.694;2022-09-21T10:48:22;21.50;99.90
8824;DHT22;4448;50.904;4.694;2022-09-21T10:50:49;21.60;99.90
8824;DHT22;4448;50.904;4.694;2022-09-21T10:53:26;22.30;99.90
8824;DHT22;4448;50.904;4.694;2022-09-21T10:56:02;23.20;99.90
8824;DHT22;4448;50.904;4.694;2022-09-21T10:58:29;24.00;99.90
8824;DHT22;4448;50.904;4.694;2022-09-21T11:00:56;24.40;99.90
8824;DHT22;4448;50.904;4.694;2022-09-21T11:03:41;24.20;99.90
8824;DHT22;4448;50.904;4.694;2022-09-21T11:06:31;24.00;99.90
8824;DHT22;4448;50.904;4.694;2022-09-21T11:09:08;23.60;99.90
8824;DHT22;4448;50.904;4.694;2022-09-21T11:11:49;22.90;99.90
8824;DHT22;4448;50.904;4.694;2022-09-21T11:16:54;21.70;99.90
8824;DHT22;4448;50.904;4.694;2022-09-21T11:19:32;21.30;99.90
8824;DHT22;4448;50.904;4.694;2022-09-21T11:23:10;20.90;99.90
8824;DHT22;4448;50.904;4.694;2022-09-21T11:27:54;21.10;99.90
8824;DHT22;4448;50.904;4.694;2022-09-21T11:30:20;21.10;99.90
8824;DHT22;4448;50.904;4.694;2022-09-21T11:35:42;20.60;99.90
8824;DHT22;4448;50.904;4.694;2022-09-21T11:40:58;20.10;99.90
8824;DHT22;4448;50.904;4.694;2022-09-21T11:46:39;20.10;99.90
8824;DHT22;4448;50.904;4.694;2022-09-21T11:57:17;23.10;99.90
8824;DHT22;4448;50.904;4.694;2022-09-21T11:59:54;22.40;99.90
8824;DHT22;4448;50.904;4.694;2022-09-21T12:08:31;20.30;99.90
8824;DHT22;4448;50.904;4.694;2022-09-21T12:22:11;23.30;99.90
8824;DHT22;4448;50.904;4.694;2022-09-21T12:24:39;23.60;99.90
8824;DHT22;4448;50.904;4.694;2022-09-21T12:30:03;24.30;99.90
8824;DHT22;4448;50.904;4.694;2022-09-21T12:35:29;25.60;99.70
8824;DHT22;4448;50.904;4.694;2022-09-21T12:41:19;26.00;98.90
8824;DHT22;4448;50.904;4.694;2022-09-21T12:46:55;24.90;99.60
8824;DHT22;4448;50.904;4.694;2022-09-21T12:49:39;24.20;99.90
8824;DHT22;4448;50.904;4.694;2022-09-21T12:52:06;23.00;99.90
8824;DHT22;4448;50.904;4.694;2022-09-21T12:54:47;22.30;99.90
8824;DHT22;4448;50.904;4.694;2022-09-21T12:57:28;21.80;99.90
8824;DHT22;4448;50.904;4.694;2022-09-21T13:00:20;21.40;99.90
8824;DHT22;4448;50.904;4.694;2022-09-21T13:02:54;21.00;99.90
8824;DHT22;4448;50.904;4.694;2022-09-21T13:05:32;20.50;99.90
8824;DHT22;4448;50.904;4.694;2022-09-21T13:08:15;20.20;99.90
8824;DHT22;4448;50.904;4.694;2022-09-21T13:13:46;20.20;99.90
8824;DHT22;4448;50.904;4.694;2022-09-21T13:16:28;20.20;99.90
8824;DHT22;4448;50.904;4.694;2022-09-21T13:21:39;20.10;99.90
8824;DHT22;4448;50.904;4.694;2022-09-21T13:24:06;20.70;99.90
8824;DHT22;4448;50.904;4.694;2022-09-21T13:26:58;21.30;99.90
8824;DHT22;4448;50.904;4.694;2022-09-21T13:29:33;21.50;99.90
8824;DHT22;4448;50.904;4.694;2022-09-21T13:32:00;21.30;99.90
8824;DHT22;4448;50.904;4.694;2022-09-21T13:34:37;20.90;99.90
8824;DHT22;4448;50.904;4.694;2022-09-21T13:37:27;20.80;99.90
8824;DHT22;4448;50.904;4.694;2022-09-21T13:47:46;23.20;99.90
8824;DHT22;4448;50.904;4.694;2022-09-21T13:50:30;23.40;99.90
8824;DHT22;4448;50.904;4.694;2022-09-21T13:53:16;23.80;99.90
8824;DHT22;4448;50.904;4.694;2022-09-21T13:55:54;23.60;99.90
8824;DHT22;4448;50.904;4.694;2022-09-21T13:58:33;23.50;99.90
8824;DHT22;4448;50.904;4.694;2022-09-21T14:01:04;23.60;99.90
8824;DHT22;4448;50.904;4.694;2022-09-21T14:03:38;23.90;99.90
8824;DHT22;4448;50.904;4.694;2022-09-21T14:06:07;24.20;99.90
8824;DHT22;4448;50.904;4.694;2022-09-21T14:08:39;24.40;97.80
8824;DHT22;4448;50.904;4.694;2022-09-21T14:11:16;24.10;99.60
8824;DHT22;4448;50.904;4.694;2022-09-21T14:14:14;23.40;99.70
8824;DHT22;4448;50.904;4.694;2022-09-21T14:24:48;22.30;99.90
8824;DHT22;4448;50.904;4.694;2022-09-21T14:27:43;21.80;99.90
8824;DHT22;4448;50.904;4.694;2022-09-21T14:30:22;21.30;99.90
8824;DHT22;4448;50.904;4.694;2022-09-21T14:35:41;20.90;99.90
8824;DHT22;4448;50.904;4.694;2022-09-21T14:38:28;20.70;99.90
8824;DHT22;4448;50.904;4.694;2022-09-21T14:41:02;20.60;99.90
8824;DHT22;4448;50.904;4.694;2022-09-21T14:43:32;20.50;99.90
8824;DHT22;4448;50.904;4.694;2022-09-21T14:51:44;20.20;99.90
8824;DHT22;4448;50.904;4.694;2022-09-21T14:54:33;20.30;99.90
8824;DHT22;4448;50.904;4.694;2022-09-21T14:57:31;20.40;99.90
8824;DHT22;4448;50.904;4.694;2022-09-21T15:00:21;20.70;99.90
8824;DHT22;4448;50.904;4.694;2022-09-21T15:05:42;21.40;99.90
8824;DHT22;4448;50.904;4.694;2022-09-21T15:08:36;22.00;99.90
8824;DHT22;4448;50.904;4.694;2022-09-21T15:11:38;22.90;99.90
8824;DHT22;4448;50.904;4.694;2022-09-21T15:16:46;24.60;97.90
8824;DHT22;4448;50.904;4.694;2022-09-21T15:19:27;25.00;97.40
8824;DHT22;4448;50.904;4.694;2022-09-21T15:24:53;25.80;96.20
8824;DHT22;4448;50.904;4.694;2022-09-21T15:27:24;26.10;95.10
8824;DHT22;4448;50.904;4.694;2022-09-21T15:29:52;26.30;95.70
8824;DHT22;4448;50.904;4.694;2022-09-21T15:32:40;26.50;95.00
8824;DHT22;4448;50.904;4.694;2022-09-21T15:35:22;26.80;94.90
8824;DHT22;4448;50.904;4.694;2022-09-21T15:37:49;26.30;94.00
8824;DHT22;4448;50.904;4.694;2022-09-21T15:40:21;26.10;94.30
8824;DHT22;4448;50.904;4.694;2022-09-21T15:48:27;25.50;93.40
8824;DHT22;4448;50.904;4.694;2022-09-21T15:51:17;25.80;93.80
8824;DHT22;4448;50.904;4.694;2022-09-21T15:54:35;25.90;92.40
8824;DHT22;4448;50.904;4.694;2022-09-21T15:56:44;25.90;93.00
8824;DHT22;4448;50.904;4.694;2022-09-21T15:59:16;26.20;92.30
8824;DHT22;4448;50.904;4.694;2022-09-21T16:01:48;26.40;92.30
8824;DHT22;4448;50.904;4.694;2022-09-21T16:04:33;26.40;92.50
8824;DHT22;4448;50.904;4.694;2022-09-21T16:09:48;26.90;90.60
8824;DHT22;4448;50.904;4.694;2022-09-21T16:15:17;26.70;90.20
8824;DHT22;4448;50.904;4.694;2022-09-21T16:18:03;26.60;90.30
8824;DHT22;4448;50.904;4.694;2022-09-21T16:20:45;26.50;89.50
8824;DHT22;4448;50.904;4.694;2022-09-21T16:23:21;26.40;89.90
8824;DHT22;4448;50.904;4.694;2022-09-21T16:26:36;26.10;90.30
8824;DHT22;4448;50.904;4.694;2022-09-21T16:29:20;25.70;91.60
8824;DHT22;4448;50.904;4.694;2022-09-21T16:31:50;25.40;92.40
8824;DHT22;4448;50.904;4.694;2022-09-21T16:34:18;25.30;92.90
8824;DHT22;4448;50.904;4.694;2022-09-21T16:36:51;25.10;93.00
8824;DHT22;4448;50.904;4.694;2022-09-21T16:39:19;25.00;93.20
8824;DHT22;4448;50.904;4.694;2022-09-21T16:41:49;24.60;93.70
8824;DHT22;4448;50.904;4.694;2022-09-21T16:44:21;24.60;94.10
8824;DHT22;4448;50.904;4.694;2022-09-21T16:47:01;24.80;94.00
8824;DHT22;4448;50.904;4.694;2022-09-21T16:49:32;24.90;94.50
8824;DHT22;4448;50.904;4.694;2022-09-21T16:51:59;24.90;94.60
8824;DHT22;4448;50.904;4.694;2022-09-21T16:54:26;24.50;94.70
8824;DHT22;4448;50.904;4.694;2022-09-21T16:56:54;24.30;95.00
8824;DHT22;4448;50.904;4.694;2022-09-21T16:59:21;24.20;95.60
8824;DHT22;4448;50.904;4.694;2022-09-21T17:01:52;23.70;95.40
8824;DHT22;4448;50.904;4.694;2022-09-21T17:04:20;22.80;96.40
8824;DHT22;4448;50.904;4.694;2022-09-21T17:06:50;22.00;97.30
8824;DHT22;4448;50.904;4.694;2022-09-21T17:09:23;21.40;98.20
8824;DHT22;4448;50.904;4.694;2022-09-21T17:11:49;21.00;99.00
8824;DHT22;4448;50.904;4.694;2022-09-21T17:14:17;20.50;99.80
8824;DHT22;4448;50.904;4.694;2022-09-21T17:16:49;20.20;99.90
8824;DHT22;4448;50.904;4.694;2022-09-21T17:19:16;19.90;99.90
8824;DHT22;4448;50.904;4.694;2022-09-21T17:21:42;19.60;99.90
8824;DHT22;4448;50.904;4.694;2022-09-21T17:24:07;19.40;99.90
8824;DHT22;4448;50.904;4.694;2022-09-21T17:26:33;19.20;99.90
8824;DHT22;4448;50.904;4.694;2022-09-21T17:28:59;19.10;99.90
8824;DHT22;4448;50.904;4.694;2022-09-21T17:31:26;19.10;99.90
8824;DHT22;4448;50.904;4.694;2022-09-21T17:33:52;18.90;99.90
8824;DHT22;4448;50.904;4.694;2022-09-21T17:36:19;18.80;99.90
8824;DHT22;4448;50.904;4.694;2022-09-21T17:38:44;18.70;99.90
8824;DHT22;4448;50.904;4.694;2022-09-21T17:41:24;18.50;99.90
8824;DHT22;4448;50.904;4.694;2022-09-21T17:46:51;17.80;99.90
8824;DHT22;4448;50.904;4.694;2022-09-21T17:49:18;17.50;99.90
8824;DHT22;4448;50.904;4.694;2022-09-21T17:51:44;17.20;99.90
8824;DHT22;4448;50.904;4.694;2022-09-21T17:54:29;17.00;99.90
8824;DHT22;4448;50.904;4.694;2022-09-21T17:59:47;16.60;99.90
8824;DHT22;4448;50.904;4.694;2022-09-21T18:02:23;16.50;99.90
8824;DHT22;4448;50.904;4.694;2022-09-21T18:04:52;16.30;99.90
8824;DHT22;4448;50.904;4.694;2022-09-21T18:07:21;16.10;99.90
8824;DHT22;4448;50.904;4.694;2022-09-21T18:09:48;16.00;99.90
8824;DHT22;4448;50.904;4.694;2022-09-21T18:12:39;16.00;99.90
8824;DHT22;4448;50.904;4.694;2022-09-21T18:15:28;16.00;99.90
8824;DHT22;4448;50.904;4.694;2022-09-21T18:18:17;15.90;99.90
8824;DHT22;4448;50.904;4.694;2022-09-21T18:20:57;15.90;99.90
8824;DHT22;4448;50.904;4.694;2022-09-21T18:23:51;15.80;99.90
8824;DHT22;4448;50.904;4.694;2022-09-21T18:26:18;15.60;99.90
8824;DHT22;4448;50.904;4.694;2022-09-21T18:28:46;15.40;99.90
8824;DHT22;4448;50.904;4.694;2022-09-21T18:31:40;15.30;99.90
8824;DHT22;4448;50.904;4.694;2022-09-21T18:45:13;15.30;99.90
8824;DHT22;4448;50.904;4.694;2022-09-21T18:50:44;15.20;99.90
8824;DHT22;4448;50.904;4.694;2022-09-21T18:53:35;15.10;99.90
8824;DHT22;4448;50.904;4.694;2022-09-21T18:56:02;15.00;99.90
8824;DHT22;4448;50.904;4.694;2022-09-21T18:58:29;14.90;99.90
8824;DHT22;4448;50.904;4.694;2022-09-21T19:00:55;14.80;99.90
8824;DHT22;4448;50.904;4.694;2022-09-21T19:03:21;14.60;99.90
8824;DHT22;4448;50.904;4.694;2022-09-21T19:20:30;14.20;99.90
8824;DHT22;4448;50.904;4.694;2022-09-21T19:26:00;14.10;99.90
8824;DHT22;4448;50.904;4.694;2022-09-21T19:31:12;13.90;99.90
8824;DHT22;4448;50.904;4.694;2022-09-21T19:33:37;13.90;99.90
8824;DHT22;4448;50.904;4.694;2022-09-21T19:36:04;13.90;99.90
8824;DHT22;4448;50.904;4.694;2022-09-21T19:38:30;13.80;99.90
8824;DHT22;4448;50.904;4.694;2022-09-21T19:41:30;13.80;99.90
8824;DHT22;4448;50.904;4.694;2022-09-21T19:49:51;13.80;99.90
8824;DHT22;4448;50.904;4.694;2022-09-21T19:52:34;13.70;99.90
8824;DHT22;4448;50.904;4.694;2022-09-21T19:55:00;13.70;99.90
8824;DHT22;4448;50.904;4.694;2022-09-21T19:57:45;13.60;99.90
8824;DHT22;4448;50.904;4.694;2022-09-21T20:00:40;13.60;99.90
8824;DHT22;4448;50.904;4.694;2022-09-21T20:06:05;13.40;99.90
8824;DHT22;4448;50.904;4.694;2022-09-21T20:09:01;13.30;99.90
8824;DHT22;4448;50.904;4.694;2022-09-21T20:17:00;13.10;99.90
8824;DHT22;4448;50.904;4.694;2022-09-21T20:19:51;13.00;99.90
8824;DHT22;4448;50.904;4.694;2022-09-21T20:22:33;12.80;99.90
8824;DHT22;4448;50.904;4.694;2022-09-21T20:25:17;12.80;99.90
8824;DHT22;4448;50.904;4.694;2022-09-21T20:27:52;12.70;99.90
8824;DHT22;4448;50.904;4.694;2022-09-21T20:30:31;12.70;99.90
8824;DHT22;4448;50.904;4.694;2022-09-21T20:33:02;12.70;99.90